sensor_id;sensor_type;location;lat;lon;timestamp;temperature;humidity
64143;DHT22;50437;51.970;5.904;2022-11-20T00:01:32;-2.10;99.90
64143;DHT22;50437;51.970;5.904;2022-11-20T00:03:58;-2.20;99.90
64143;DHT22;50437;51.970;5.904;2022-11-20T00:06:25;-2.20;99.90
64143;DHT22;50437;51.970;5.904;2022-11-20T00:08:53;-2.20;99.90
64143;DHT22;50437;51.970;5.904;2022-11-20T00:11:20;-2.20;99.90
64143;DHT22;50437;51.970;5.904;2022-11-20T00:13:47;-2.20;99.90
64143;DHT22;50437;51.970;5.904;2022-11-20T00:16:14;-2.20;99.90
64143;DHT22;50437;51.970;5.904;2022-11-20T00:18:40;-2.20;99.90
64143;DHT22;50437;51.970;5.904;2022-11-20T00:21:10;-2.20;99.90
64143;DHT22;50437;51.970;5.904;2022-11-20T00:23:36;-2.20;99.90
64143;DHT22;50437;51.970;5.904;2022-11-20T00:26:03;-2.30;99.90
64143;DHT22;50437;51.970;5.904;2022-11-20T00:28:29;-2.30;99.90
64143;DHT22;50437;51.970;5.904;2022-11-20T00:31:12;-2.30;99.90
64143;DHT22;50437;51.970;5.904;2022-11-20T00:33:38;-2.30;99.90
64143;DHT22;50437;51.970;5.904;2022-11-20T00:36:06;-2.30;99.90
64143;DHT22;50437;51.970;5.904;2022-11-20T00:38:32;-2.30;99.90
64143;DHT22;50437;51.970;5.904;2022-11-20T00:40:59;-2.30;99.90
64143;DHT22;50437;51.970;5.904;2022-11-20T00:43:25;-2.30;99.90
64143;DHT22;50437;51.970;5.904;2022-11-20T00:45:56;-2.30;99.90
64143;DHT22;50437;51.970;5.904;2022-11-20T00:48:22;-2.30;99.90
64143;DHT22;50437;51.970;5.904;2022-11-20T00:50:48;-2.30;99.90
64143;DHT22;50437;51.970;5.904;2022-11-20T00:53:13;-2.30;99.90
64143;DHT22;50437;51.970;5.904;2022-11-20T00:55:39;-2.40;99.90
64143;DHT22;50437;51.970;5.904;2022-11-20T00:58:05;-2.40;99.90
64143;DHT22;50437;51.970;5.904;2022-11-20T01:00:31;-2.40;99.90
64143;DHT22;50437;51.970;5.904;2022-11-20T01:02:57;-2.40;99.90
64143;DHT22;50437;51.970;5.904;2022-11-20T01:05:23;-2.40;99.90
64143;DHT22;50437;51.970;5.904;2022-11-20T01:07:49;-2.50;99.90
64143;DHT22;50437;51.970;5.904;2022-11-20T01:10:15;-2.50;99.90
64143;DHT22;50437;51.970;5.904;2022-11-20T01:12:41;-2.50;99.90
64143;DHT22;50437;51.970;5.904;2022-11-20T01:15:07;-2.50;99.90
64143;DHT22;50437;51.970;5.904;2022-11-20T01:17:33;-2.40;99.90
64143;DHT22;50437;51.970;5.904;2022-11-20T01:19:59;-2.50;99.90
64143;DHT22;50437;51.970;5.904;2022-11-20T01:22:25;-2.60;99.90
64143;DHT22;50437;51.970;5.904;2022-11-20T01:24:51;-2.60;99.90
64143;DHT22;50437;51.970;5.904;2022-11-20T01:27:17;-2.60;99.90
64143;DHT22;50437;51.970;5.904;2022-11-20T01:29:43;-2.60;99.90
64143;DHT22;50437;51.970;5.904;2022-11-20T01:32:09;-2.60;99.90
64143;DHT22;50437;51.970;5.904;2022-11-20T01:34:35;-2.60;99.90
64143;DHT22;50437;51.970;5.904;2022-11-20T01:37:01;-2.60;99.90
64143;DHT22;50437;51.970;5.904;2022-11-20T01:39:26;-2.50;99.90
64143;DHT22;50437;51.970;5.904;2022-11-20T01:41:53;-2.50;99.90
64143;DHT22;50437;51.970;5.904;2022-11-20T01:47:09;-2.50;99.90
64143;DHT22;50437;51.970;5.904;2022-11-20T01:49:39;-2.40;99.90
64143;DHT22;50437;51.970;5.904;2022-11-20T01:52:07;-2.30;99.90
64143;DHT22;50437;51.970;5.904;2022-11-20T01:54:36;-2.40;99.90
64143;DHT22;50437;51.970;5.904;2022-11-20T01:57:04;-2.30;99.90
64143;DHT22;50437;51.970;5.904;2022-11-20T01:59:31;-2.40;99.90
64143;DHT22;50437;51.970;5.904;2022-11-20T02:01:58;-2.40;99.90
64143;DHT22;50437;51.970;5.904;2022-11-20T02:04:24;-2.40;99.90
64143;DHT22;50437;51.970;5.904;2022-11-20T02:06:55;-2.40;99.90
64143;DHT22;50437;51.970;5.904;2022-11-20T02:09:23;-2.40;99.90
64143;DHT22;50437;51.970;5.904;2022-11-20T02:11:49;-2.40;99.90
64143;DHT22;50437;51.970;5.904;2022-11-20T02:14:15;-2.40;99.90
64143;DHT22;50437;51.970;5.904;2022-11-20T02:16:43;-2.40;99.90
64143;DHT22;50437;51.970;5.904;2022-11-20T02:19:20;-2.40;99.90
64143;DHT22;50437;51.970;5.904;2022-11-20T02:21:49;-2.50;99.90
64143;DHT22;50437;51.970;5.904;2022-11-20T02:24:17;-2.50;99.90
64143;DHT22;50437;51.970;5.904;2022-11-20T02:29:10;-2.60;99.90
64143;DHT22;50437;51.970;5.904;2022-11-20T02:31:37;-2.60;99.90
64143;DHT22;50437;51.970;5.904;2022-11-20T02:34:03;-2.60;99.90
64143;DHT22;50437;51.970;5.904;2022-11-20T02:36:29;-2.70;99.90
64143;DHT22;50437;51.970;5.904;2022-11-20T02:38:57;-2.70;99.90
64143;DHT22;50437;51.970;5.904;2022-11-20T02:41:30;-2.70;99.90
64143;DHT22;50437;51.970;5.904;2022-11-20T02:43:55;-2.70;99.90
64143;DHT22;50437;51.970;5.904;2022-11-20T02:46:21;-2.70;99.90
64143;DHT22;50437;51.970;5.904;2022-11-20T02:48:47;-2.80;99.90
64143;DHT22;50437;51.970;5.904;2022-11-20T02:51:13;-2.80;99.90
64143;DHT22;50437;51.970;5.904;2022-11-20T02:53:39;-2.80;99.90
64143;DHT22;50437;51.970;5.904;2022-11-20T02:56:05;-2.80;99.90
64143;DHT22;50437;51.970;5.904;2022-11-20T02:58:31;-2.80;99.90
64143;DHT22;50437;51.970;5.904;2022-11-20T03:00:57;-2.80;99.90
64143;DHT22;50437;51.970;5.904;2022-11-20T03:03:23;-2.90;99.90
64143;DHT22;50437;51.970;5.904;2022-11-20T03:05:49;-2.80;99.90
64143;DHT22;50437;51.970;5.904;2022-11-20T03:08:15;-2.80;99.90
64143;DHT22;50437;51.970;5.904;2022-11-20T03:10:41;-2.90;99.90
64143;DHT22;50437;51.970;5.904;2022-11-20T03:13:07;-2.90;99.90
64143;DHT22;50437;51.970;5.904;2022-11-20T03:15:35;-2.90;99.90
64143;DHT22;50437;51.970;5.904;2022-11-20T03:18:01;-3.00;99.90
64143;DHT22;50437;51.970;5.904;2022-11-20T03:20:27;-3.00;99.90
64143;DHT22;50437;51.970;5.904;2022-11-20T03:22:53;-3.00;99.90
64143;DHT22;50437;51.970;5.904;2022-11-20T03:25:19;-3.00;99.90
64143;DHT22;50437;51.970;5.904;2022-11-20T03:27:45;-3.00;99.90
64143;DHT22;50437;51.970;5.904;2022-11-20T03:30:11;-3.00;99.90
64143;DHT22;50437;51.970;5.904;2022-11-20T03:32:37;-3.00;99.90
64143;DHT22;50437;51.970;5.904;2022-11-20T03:35:03;-2.90;99.90
64143;DHT22;50437;51.970;5.904;2022-11-20T03:37:29;-2.90;99.90
64143;DHT22;50437;51.970;5.904;2022-11-20T03:39:55;-2.90;99.90
64143;DHT22;50437;51.970;5.904;2022-11-20T03:42:21;-2.90;99.90
64143;DHT22;50437;51.970;5.904;2022-11-20T03:45:14;-3.00;99.90
64143;DHT22;50437;51.970;5.904;2022-11-20T03:47:40;-3.00;99.90
64143;DHT22;50437;51.970;5.904;2022-11-20T03:50:06;-3.00;99.90
64143;DHT22;50437;51.970;5.904;2022-11-20T03:52:32;-3.00;99.90
64143;DHT22;50437;51.970;5.904;2022-11-20T03:54:58;-3.00;99.90
64143;DHT22;50437;51.970;5.904;2022-11-20T03:57:24;-3.00;99.90
64143;DHT22;50437;51.970;5.904;2022-11-20T03:59:50;-3.00;99.90
64143;DHT22;50437;51.970;5.904;2022-11-20T04:02:16;-3.00;99.90
64143;DHT22;50437;51.970;5.904;2022-11-20T04:04:42;-3.10;99.90
64143;DHT22;50437;51.970;5.904;2022-11-20T04:07:08;-3.10;99.90
64143;DHT22;50437;51.970;5.904;2022-11-20T04:09:34;-3.10;99.90
64143;DHT22;50437;51.970;5.904;2022-11-20T04:12:00;-3.20;99.90
64143;DHT22;50437;51.970;5.904;2022-11-20T04:14:26;-3.20;99.90
64143;DHT22;50437;51.970;5.904;2022-11-20T04:16:51;-3.30;99.90
64143;DHT22;50437;51.970;5.904;2022-11-20T04:19:17;-3.30;99.90
64143;DHT22;50437;51.970;5.904;2022-11-20T04:21:44;-3.30;99.90
64143;DHT22;50437;51.970;5.904;2022-11-20T04:24:10;-3.30;99.90
64143;DHT22;50437;51.970;5.904;2022-11-20T04:26:36;-3.20;99.90
64143;DHT22;50437;51.970;5.904;2022-11-20T04:29:03;-3.30;99.90
64143;DHT22;50437;51.970;5.904;2022-11-20T04:31:29;-3.30;99.90
64143;DHT22;50437;51.970;5.904;2022-11-20T04:33:58;-3.30;99.90
64143;DHT22;50437;51.970;5.904;2022-11-20T04:36:25;-3.30;99.90
64143;DHT22;50437;51.970;5.904;2022-11-20T04:38:52;-3.30;99.90
64143;DHT22;50437;51.970;5.904;2022-11-20T04:41:19;-3.30;99.90
64143;DHT22;50437;51.970;5.904;2022-11-20T04:43:52;-3.40;99.90
64143;DHT22;50437;51.970;5.904;2022-11-20T04:46:19;-3.40;99.90
64143;DHT22;50437;51.970;5.904;2022-11-20T04:48:45;-3.40;99.90
64143;DHT22;50437;51.970;5.904;2022-11-20T04:51:11;-3.40;99.90
64143;DHT22;50437;51.970;5.904;2022-11-20T04:53:38;-3.40;99.90
64143;DHT22;50437;51.970;5.904;2022-11-20T04:56:05;-3.40;99.90
64143;DHT22;50437;51.970;5.904;2022-11-20T04:58:32;-3.40;99.90
64143;DHT22;50437;51.970;5.904;2022-11-20T05:01:05;-3.40;99.90
64143;DHT22;50437;51.970;5.904;2022-11-20T05:03:32;-3.40;99.90
64143;DHT22;50437;51.970;5.904;2022-11-20T05:06:01;-3.40;99.90
64143;DHT22;50437;51.970;5.904;2022-11-20T05:08:28;-3.40;99.90
64143;DHT22;50437;51.970;5.904;2022-11-20T05:10:54;-3.40;99.90
64143;DHT22;50437;51.970;5.904;2022-11-20T05:13:24;-3.50;99.90
64143;DHT22;50437;51.970;5.904;2022-11-20T05:15:50;-3.50;99.90
64143;DHT22;50437;51.970;5.904;2022-11-20T05:18:16;-3.50;99.90
64143;DHT22;50437;51.970;5.904;2022-11-20T05:20:42;-3.50;99.90
64143;DHT22;50437;51.970;5.904;2022-11-20T05:23:08;-3.50;99.90
64143;DHT22;50437;51.970;5.904;2022-11-20T05:25:34;-3.50;99.90
64143;DHT22;50437;51.970;5.904;2022-11-20T05:28:00;-3.50;99.90
64143;DHT22;50437;51.970;5.904;2022-11-20T05:30:26;-3.50;99.90
64143;DHT22;50437;51.970;5.904;2022-11-20T05:32:52;-3.50;99.90
64143;DHT22;50437;51.970;5.904;2022-11-20T05:35:18;-3.60;99.90
64143;DHT22;50437;51.970;5.904;2022-11-20T05:37:44;-3.50;99.90
64143;DHT22;50437;51.970;5.904;2022-11-20T05:40:10;-3.50;99.90
64143;DHT22;50437;51.970;5.904;2022-11-20T05:42:37;-3.60;99.90
64143;DHT22;50437;51.970;5.904;2022-11-20T05:45:03;-3.60;99.90
64143;DHT22;50437;51.970;5.904;2022-11-20T05:47:33;-3.60;99.90
64143;DHT22;50437;51.970;5.904;2022-11-20T05:50:00;-3.50;99.90
64143;DHT22;50437;51.970;5.904;2022-11-20T05:52:29;-3.50;99.90
64143;DHT22;50437;51.970;5.904;2022-11-20T05:54:56;-3.60;99.90
64143;DHT22;50437;51.970;5.904;2022-11-20T05:57:22;-3.60;99.90
64143;DHT22;50437;51.970;5.904;2022-11-20T05:59:47;-3.60;99.90
64143;DHT22;50437;51.970;5.904;2022-11-20T06:02:13;-3.60;99.90
64143;DHT22;50437;51.970;5.904;2022-11-20T06:04:39;-3.70;99.90
64143;DHT22;50437;51.970;5.904;2022-11-20T06:07:05;-3.70;99.90
64143;DHT22;50437;51.970;5.904;2022-11-20T06:09:32;-3.70;99.90
64143;DHT22;50437;51.970;5.904;2022-11-20T06:11:58;-3.70;99.90
64143;DHT22;50437;51.970;5.904;2022-11-20T06:14:24;-3.70;99.90
64143;DHT22;50437;51.970;5.904;2022-11-20T06:16:50;-3.70;99.90
64143;DHT22;50437;51.970;5.904;2022-11-20T06:19:16;-3.70;99.90
64143;DHT22;50437;51.970;5.904;2022-11-20T06:21:42;-3.70;99.90
64143;DHT22;50437;51.970;5.904;2022-11-20T06:24:11;-3.60;99.90
64143;DHT22;50437;51.970;5.904;2022-11-20T06:26:37;-3.60;99.90
64143;DHT22;50437;51.970;5.904;2022-11-20T06:29:03;-3.60;99.90
64143;DHT22;50437;51.970;5.904;2022-11-20T06:31:29;-3.70;99.90
64143;DHT22;50437;51.970;5.904;2022-11-20T06:33:55;-3.60;99.90
64143;DHT22;50437;51.970;5.904;2022-11-20T06:36:21;-3.60;99.90
64143;DHT22;50437;51.970;5.904;2022-11-20T06:38:47;-3.60;99.90
64143;DHT22;50437;51.970;5.904;2022-11-20T06:41:15;-3.60;99.90
64143;DHT22;50437;51.970;5.904;2022-11-20T06:43:41;-3.60;99.90
64143;DHT22;50437;51.970;5.904;2022-11-20T06:46:08;-3.60;99.90
64143;DHT22;50437;51.970;5.904;2022-11-20T06:48:34;-3.60;99.90
64143;DHT22;50437;51.970;5.904;2022-11-20T06:51:02;-3.60;99.90
64143;DHT22;50437;51.970;5.904;2022-11-20T06:53:28;-3.70;99.90
64143;DHT22;50437;51.970;5.904;2022-11-20T06:55:55;-3.70;99.90
64143;DHT22;50437;51.970;5.904;2022-11-20T06:58:21;-3.70;99.90
64143;DHT22;50437;51.970;5.904;2022-11-20T07:00:47;-3.70;99.90
64143;DHT22;50437;51.970;5.904;2022-11-20T07:03:13;-3.70;99.90
64143;DHT22;50437;51.970;5.904;2022-11-20T07:05:39;-3.70;99.90
64143;DHT22;50437;51.970;5.904;2022-11-20T07:08:06;-3.70;99.90
64143;DHT22;50437;51.970;5.904;2022-11-20T07:10:32;-3.70;99.90
64143;DHT22;50437;51.970;5.904;2022-11-20T07:12:58;-3.70;99.90
64143;DHT22;50437;51.970;5.904;2022-11-20T07:15:25;-3.70;99.90
64143;DHT22;50437;51.970;5.904;2022-11-20T07:17:51;-3.70;99.90
64143;DHT22;50437;51.970;5.904;2022-11-20T07:20:17;-3.60;99.90
64143;DHT22;50437;51.970;5.904;2022-11-20T07:22:43;-3.60;99.90
64143;DHT22;50437;51.970;5.904;2022-11-20T07:25:10;-3.60;99.90
64143;DHT22;50437;51.970;5.904;2022-11-20T07:27:36;-3.60;99.90
64143;DHT22;50437;51.970;5.904;2022-11-20T07:30:03;-3.50;99.90
64143;DHT22;50437;51.970;5.904;2022-11-20T07:32:29;-3.40;99.90
64143;DHT22;50437;51.970;5.904;2022-11-20T07:34:55;-3.40;99.90
64143;DHT22;50437;51.970;5.904;2022-11-20T07:37:21;-3.40;99.90
64143;DHT22;50437;51.970;5.904;2022-11-20T07:39:47;-3.30;99.90
64143;DHT22;50437;51.970;5.904;2022-11-20T07:42:13;-3.30;99.90
64143;DHT22;50437;51.970;5.904;2022-11-20T07:44:39;-3.30;99.90
64143;DHT22;50437;51.970;5.904;2022-11-20T07:47:05;-3.30;99.90
64143;DHT22;50437;51.970;5.904;2022-11-20T07:49:31;-3.30;99.90
64143;DHT22;50437;51.970;5.904;2022-11-20T07:51:57;-3.20;99.90
64143;DHT22;50437;51.970;5.904;2022-11-20T07:54:23;-3.20;99.90
64143;DHT22;50437;51.970;5.904;2022-11-20T07:56:50;-3.10;99.90
64143;DHT22;50437;51.970;5.904;2022-11-20T07:59:16;-3.00;99.90
64143;DHT22;50437;51.970;5.904;2022-11-20T08:01:42;-3.00;99.90
64143;DHT22;50437;51.970;5.904;2022-11-20T08:04:08;-3.00;99.90
64143;DHT22;50437;51.970;5.904;2022-11-20T08:06:35;-2.90;99.90
64143;DHT22;50437;51.970;5.904;2022-11-20T08:09:01;-2.80;99.90
64143;DHT22;50437;51.970;5.904;2022-11-20T08:11:27;-2.80;99.90
64143;DHT22;50437;51.970;5.904;2022-11-20T08:14:11;-2.70;99.90
64143;DHT22;50437;51.970;5.904;2022-11-20T08:16:41;-2.60;99.90
64143;DHT22;50437;51.970;5.904;2022-11-20T08:19:08;-2.50;99.90
64143;DHT22;50437;51.970;5.904;2022-11-20T08:21:34;-2.40;99.90
64143;DHT22;50437;51.970;5.904;2022-11-20T08:24:00;-2.40;99.90
64143;DHT22;50437;51.970;5.904;2022-11-20T08:26:26;-2.30;99.90
64143;DHT22;50437;51.970;5.904;2022-11-20T08:28:56;-2.20;99.90
64143;DHT22;50437;51.970;5.904;2022-11-20T08:31:22;-2.10;99.90
64143;DHT22;50437;51.970;5.904;2022-11-20T08:33:48;-2.00;99.90
64143;DHT22;50437;51.970;5.904;2022-11-20T08:36:14;-1.90;99.90
64143;DHT22;50437;51.970;5.904;2022-11-20T08:38:40;-1.80;99.90
64143;DHT22;50437;51.970;5.904;2022-11-20T08:41:06;-1.80;99.90
64143;DHT22;50437;51.970;5.904;2022-11-20T08:43:52;-1.70;99.90
64143;DHT22;50437;51.970;5.904;2022-11-20T08:46:19;-1.70;99.90
64143;DHT22;50437;51.970;5.904;2022-11-20T08:48:45;-1.60;99.90
64143;DHT22;50437;51.970;5.904;2022-11-20T08:51:11;-1.50;99.90
64143;DHT22;50437;51.970;5.904;2022-11-20T08:53:41;-1.50;99.90
64143;DHT22;50437;51.970;5.904;2022-11-20T08:56:07;-1.30;99.90
64143;DHT22;50437;51.970;5.904;2022-11-20T08:58:33;-1.20;99.90
64143;DHT22;50437;51.970;5.904;2022-11-20T09:00:59;-1.20;99.90
64143;DHT22;50437;51.970;5.904;2022-11-20T09:03:25;-1.20;99.90
64143;DHT22;50437;51.970;5.904;2022-11-20T09:06:05;-1.00;99.90
64143;DHT22;50437;51.970;5.904;2022-11-20T09:08:32;-0.90;99.90
64143;DHT22;50437;51.970;5.904;2022-11-20T09:10:58;-0.90;99.90
64143;DHT22;50437;51.970;5.904;2022-11-20T09:13:25;-0.80;99.90
64143;DHT22;50437;51.970;5.904;2022-11-20T09:16:01;-0.80;99.90
64143;DHT22;50437;51.970;5.904;2022-11-20T09:18:28;-0.70;99.90
64143;DHT22;50437;51.970;5.904;2022-11-20T09:20:57;-0.70;99.90
64143;DHT22;50437;51.970;5.904;2022-11-20T09:23:24;-0.60;99.90
64143;DHT22;50437;51.970;5.904;2022-11-20T09:25:50;-0.60;99.90
64143;DHT22;50437;51.970;5.904;2022-11-20T09:28:16;-0.60;99.90
64143;DHT22;50437;51.970;5.904;2022-11-20T09:30:44;-0.50;99.90
64143;DHT22;50437;51.970;5.904;2022-11-20T09:33:10;-0.50;99.90
64143;DHT22;50437;51.970;5.904;2022-11-20T09:35:36;-0.50;99.90
64143;DHT22;50437;51.970;5.904;2022-11-20T09:38:07;-0.50;99.90
64143;DHT22;50437;51.970;5.904;2022-11-20T09:40:34;-0.50;99.90
64143;DHT22;50437;51.970;5.904;2022-11-20T09:45:42;-0.30;99.90
64143;DHT22;50437;51.970;5.904;2022-11-20T09:51:12;-0.40;99.90
64143;DHT22;50437;51.970;5.904;2022-11-20T09:54:00;-0.20;99.90
64143;DHT22;50437;51.970;5.904;2022-11-20T09:56:30;-0.20;99.90
64143;DHT22;50437;51.970;5.904;2022-11-20T09:58:59;-0.10;99.90
64143;DHT22;50437;51.970;5.904;2022-11-20T10:01:30;-0.10;99.90
64143;DHT22;50437;51.970;5.904;2022-11-20T10:03:58;0.00;99.90
64143;DHT22;50437;51.970;5.904;2022-11-20T10:06:51;0.10;99.90
64143;DHT22;50437;51.970;5.904;2022-11-20T10:19:30;0.50;99.90
64143;DHT22;50437;51.970;5.904;2022-11-20T10:29:34;0.70;99.90
64143;DHT22;50437;51.970;5.904;2022-11-20T10:32:02;0.70;99.90
64143;DHT22;50437;51.970;5.904;2022-11-20T10:37:01;1.10;99.90
64143;DHT22;50437;51.970;5.904;2022-11-20T10:39:33;1.20;99.90
64143;DHT22;50437;51.970;5.904;2022-11-20T10:42:01;1.40;99.90
64143;DHT22;50437;51.970;5.904;2022-11-20T10:44:28;1.50;99.90
64143;DHT22;50437;51.970;5.904;2022-11-20T10:47:14;1.50;99.90
64143;DHT22;50437;51.970;5.904;2022-11-20T10:49:40;1.60;99.90
64143;DHT22;50437;51.970;5.904;2022-11-20T10:54:36;1.60;99.90
64143;DHT22;50437;51.970;5.904;2022-11-20T10:57:10;1.50;99.90
64143;DHT22;50437;51.970;5.904;2022-11-20T11:02:20;1.40;99.90
64143;DHT22;50437;51.970;5.904;2022-11-20T11:04:47;1.30;99.90
64143;DHT22;50437;51.970;5.904;2022-11-20T11:09:43;1.30;99.90
64143;DHT22;50437;51.970;5.904;2022-11-20T11:12:09;1.30;99.90
64143;DHT22;50437;51.970;5.904;2022-11-20T11:14:43;1.30;99.90
64143;DHT22;50437;51.970;5.904;2022-11-20T11:17:18;1.40;99.90
64143;DHT22;50437;51.970;5.904;2022-11-20T11:19:45;1.50;99.90
64143;DHT22;50437;51.970;5.904;2022-11-20T11:22:15;1.50;99.90
64143;DHT22;50437;51.970;5.904;2022-11-20T11:24:43;1.60;99.90
64143;DHT22;50437;51.970;5.904;2022-11-20T11:27:16;1.60;99.90
64143;DHT22;50437;51.970;5.904;2022-11-20T11:29:43;1.70;99.90
64143;DHT22;50437;51.970;5.904;2022-11-20T11:32:13;1.70;99.90
64143;DHT22;50437;51.970;5.904;2022-11-20T11:34:40;1.80;99.90
64143;DHT22;50437;51.970;5.904;2022-11-20T11:37:19;1.90;99.90
64143;DHT22;50437;51.970;5.904;2022-11-20T11:39:47;2.00;99.90
64143;DHT22;50437;51.970;5.904;2022-11-20T11:42:16;2.10;99.90
64143;DHT22;50437;51.970;5.904;2022-11-20T11:44:48;2.10;99.90
64143;DHT22;50437;51.970;5.904;2022-11-20T11:47:36;2.20;99.90
64143;DHT22;50437;51.970;5.904;2022-11-20T11:55:02;2.00;99.90
64143;DHT22;50437;51.970;5.904;2022-11-20T11:57:44;1.90;99.90
64143;DHT22;50437;51.970;5.904;2022-11-20T12:00:13;1.90;99.90
64143;DHT22;50437;51.970;5.904;2022-11-20T12:05:16;1.80;99.90
64143;DHT22;50437;51.970;5.904;2022-11-20T12:07:47;1.90;99.90
64143;DHT22;50437;51.970;5.904;2022-11-20T12:12:52;1.80;99.90
64143;DHT22;50437;51.970;5.904;2022-11-20T12:15:22;1.80;99.90
64143;DHT22;50437;51.970;5.904;2022-11-20T12:17:50;1.80;99.90
64143;DHT22;50437;51.970;5.904;2022-11-20T12:20:16;1.80;99.90
64143;DHT22;50437;51.970;5.904;2022-11-20T12:25:21;1.80;99.90
64143;DHT22;50437;51.970;5.904;2022-11-20T12:30:41;1.90;99.90
64143;DHT22;50437;51.970;5.904;2022-11-20T12:40:44;2.10;99.90
64143;DHT22;50437;51.970;5.904;2022-11-20T12:43:16;2.10;99.90
64143;DHT22;50437;51.970;5.904;2022-11-20T12:46:05;2.10;99.90
64143;DHT22;50437;51.970;5.904;2022-11-20T12:48:41;2.10;99.90
64143;DHT22;50437;51.970;5.904;2022-11-20T12:51:16;2.10;99.90
64143;DHT22;50437;51.970;5.904;2022-11-20T13:01:24;2.20;99.90
64143;DHT22;50437;51.970;5.904;2022-11-20T13:06:33;2.10;99.90
64143;DHT22;50437;51.970;5.904;2022-11-20T13:09:00;2.20;99.90
64143;DHT22;50437;51.970;5.904;2022-11-20T13:16:49;2.10;99.90
64143;DHT22;50437;51.970;5.904;2022-11-20T13:19:20;1.90;99.90
64143;DHT22;50437;51.970;5.904;2022-11-20T13:21:47;2.00;99.90
64143;DHT22;50437;51.970;5.904;2022-11-20T13:29:34;1.90;99.90
64143;DHT22;50437;51.970;5.904;2022-11-20T13:32:02;2.00;99.90
64143;DHT22;50437;51.970;5.904;2022-11-20T13:34:28;2.00;99.90
64143;DHT22;50437;51.970;5.904;2022-11-20T13:36:56;2.00;99.90
64143;DHT22;50437;51.970;5.904;2022-11-20T13:44:50;2.00;99.90
64143;DHT22;50437;51.970;5.904;2022-11-20T13:47:27;2.10;99.90
64143;DHT22;50437;51.970;5.904;2022-11-20T13:49:55;2.10;99.90
64143;DHT22;50437;51.970;5.904;2022-11-20T13:52:55;2.10;99.90
64143;DHT22;50437;51.970;5.904;2022-11-20T13:55:18;2.10;99.90
64143;DHT22;50437;51.970;5.904;2022-11-20T14:00:31;2.10;99.90
64143;DHT22;50437;51.970;5.904;2022-11-20T14:03:06;2.10;99.90
64143;DHT22;50437;51.970;5.904;2022-11-20T14:05:35;2.10;99.90
64143;DHT22;50437;51.970;5.904;2022-11-20T14:08:03;2.10;99.90
64143;DHT22;50437;51.970;5.904;2022-11-20T14:10:29;2.10;99.90
64143;DHT22;50437;51.970;5.904;2022-11-20T14:12:55;2.10;99.90
64143;DHT22;50437;51.970;5.904;2022-11-20T14:15:32;2.10;99.90
64143;DHT22;50437;51.970;5.904;2022-11-20T14:17:59;2.10;99.90
64143;DHT22;50437;51.970;5.904;2022-11-20T14:20:29;2.10;99.90
64143;DHT22;50437;51.970;5.904;2022-11-20T14:22:56;2.10;99.90
64143;DHT22;50437;51.970;5.904;2022-11-20T14:25:23;2.10;99.90
64143;DHT22;50437;51.970;5.904;2022-11-20T14:27:58;2.10;99.90
64143;DHT22;50437;51.970;5.904;2022-11-20T14:30:26;2.10;99.90
64143;DHT22;50437;51.970;5.904;2022-11-20T14:32:56;2.10;99.90
64143;DHT22;50437;51.970;5.904;2022-11-20T14:35:29;2.10;99.90
64143;DHT22;50437;51.970;5.904;2022-11-20T14:37:55;2.10;99.90
64143;DHT22;50437;51.970;5.904;2022-11-20T14:42:48;2.10;99.90
64143;DHT22;50437;51.970;5.904;2022-11-20T14:45:14;2.10;99.90
64143;DHT22;50437;51.970;5.904;2022-11-20T14:47:40;2.20;99.90
64143;DHT22;50437;51.970;5.904;2022-11-20T14:50:12;2.20;99.90
64143;DHT22;50437;51.970;5.904;2022-11-20T14:52:39;2.10;99.90
64143;DHT22;50437;51.970;5.904;2022-11-20T14:55:24;2.20;99.90
64143;DHT22;50437;51.970;5.904;2022-11-20T14:57:54;2.20;99.90
64143;DHT22;50437;51.970;5.904;2022-11-20T15:00:20;2.20;99.90
64143;DHT22;50437;51.970;5.904;2022-11-20T15:02:48;2.20;99.90
64143;DHT22;50437;51.970;5.904;2022-11-20T15:05:14;2.20;99.90
64143;DHT22;50437;51.970;5.904;2022-11-20T15:07:42;2.20;99.90
64143;DHT22;50437;51.970;5.904;2022-11-20T15:10:24;2.20;99.90
64143;DHT22;50437;51.970;5.904;2022-11-20T15:15:21;2.20;99.90
64143;DHT22;50437;51.970;5.904;2022-11-20T15:17:47;2.20;99.90
64143;DHT22;50437;51.970;5.904;2022-11-20T15:20:13;2.20;99.90
64143;DHT22;50437;51.970;5.904;2022-11-20T15:22:40;2.20;99.90
64143;DHT22;50437;51.970;5.904;2022-11-20T15:25:13;2.20;99.90
64143;DHT22;50437;51.970;5.904;2022-11-20T15:27:39;2.20;99.90
64143;DHT22;50437;51.970;5.904;2022-11-20T15:30:11;2.30;99.90
64143;DHT22;50437;51.970;5.904;2022-11-20T15:32:39;2.30;99.90
64143;DHT22;50437;51.970;5.904;2022-11-20T15:35:05;2.30;99.90
64143;DHT22;50437;51.970;5.904;2022-11-20T15:37:31;2.30;99.90
64143;DHT22;50437;51.970;5.904;2022-11-20T15:39:57;2.30;99.90
64143;DHT22;50437;51.970;5.904;2022-11-20T15:42:23;2.30;99.90
64143;DHT22;50437;51.970;5.904;2022-11-20T15:44:49;2.30;99.90
64143;DHT22;50437;51.970;5.904;2022-11-20T15:47:15;2.30;99.90
64143;DHT22;50437;51.970;5.904;2022-11-20T15:49:43;2.30;99.90
64143;DHT22;50437;51.970;5.904;2022-11-20T15:52:09;2.30;99.90
64143;DHT22;50437;51.970;5.904;2022-11-20T15:54:35;2.30;99.90
64143;DHT22;50437;51.970;5.904;2022-11-20T15:57:01;2.30;99.90
64143;DHT22;50437;51.970;5.904;2022-11-20T15:59:28;2.30;99.90
64143;DHT22;50437;51.970;5.904;2022-11-20T16:01:54;2.40;99.90
64143;DHT22;50437;51.970;5.904;2022-11-20T16:04:20;2.30;99.90
64143;DHT22;50437;51.970;5.904;2022-11-20T16:06:46;2.30;99.90
64143;DHT22;50437;51.970;5.904;2022-11-20T16:09:12;2.30;99.90
64143;DHT22;50437;51.970;5.904;2022-11-20T16:11:40;2.30;99.90
64143;DHT22;50437;51.970;5.904;2022-11-20T16:14:10;2.30;99.90
64143;DHT22;50437;51.970;5.904;2022-11-20T16:16:55;2.40;99.90
64143;DHT22;50437;51.970;5.904;2022-11-20T16:19:21;2.30;99.90
64143;DHT22;50437;51.970;5.904;2022-11-20T16:21:47;2.40;99.90
64143;DHT22;50437;51.970;5.904;2022-11-20T16:24:13;2.30;99.90
64143;DHT22;50437;51.970;5.904;2022-11-20T16:26:40;2.40;99.90
64143;DHT22;50437;51.970;5.904;2022-11-20T16:29:06;2.40;99.90
64143;DHT22;50437;51.970;5.904;2022-11-20T16:31:32;2.40;99.90
64143;DHT22;50437;51.970;5.904;2022-11-20T16:34:00;2.30;99.90
64143;DHT22;50437;51.970;5.904;2022-11-20T16:36:27;2.40;99.90
64143;DHT22;50437;51.970;5.904;2022-11-20T16:38:59;2.40;99.90
64143;DHT22;50437;51.970;5.904;2022-11-20T16:41:26;2.40;99.90
64143;DHT22;50437;51.970;5.904;2022-11-20T16:43:53;2.40;99.90
64143;DHT22;50437;51.970;5.904;2022-11-20T16:46:22;2.40;99.90
64143;DHT22;50437;51.970;5.904;2022-11-20T16:48:55;2.50;99.90
64143;DHT22;50437;51.970;5.904;2022-11-20T16:51:21;2.40;99.90
64143;DHT22;50437;51.970;5.904;2022-11-20T16:53:47;2.40;99.90
64143;DHT22;50437;51.970;5.904;2022-11-20T16:56:16;2.40;99.90
64143;DHT22;50437;51.970;5.904;2022-11-20T16:58:43;2.40;99.90
64143;DHT22;50437;51.970;5.904;2022-11-20T17:01:13;2.40;99.90
64143;DHT22;50437;51.970;5.904;2022-11-20T17:03:40;2.40;99.90
64143;DHT22;50437;51.970;5.904;2022-11-20T17:06:14;2.40;99.90
64143;DHT22;50437;51.970;5.904;2022-11-20T17:08:40;2.40;99.90
64143;DHT22;50437;51.970;5.904;2022-11-20T17:11:10;2.40;99.90
64143;DHT22;50437;51.970;5.904;2022-11-20T17:13:37;2.40;99.90
64143;DHT22;50437;51.970;5.904;2022-11-20T17:16:07;2.40;99.90
64143;DHT22;50437;51.970;5.904;2022-11-20T17:18:33;2.40;99.90